Time;durP1;ratioP1;P1;durP2;ratioP2;P2;SDS_P1;SDS_P2;PMS_P1;PMS_P2;Temp;Humidity;BMP_temperature;BMP_pressure;BME280_temperature;BME280_humidity;BME280_pressure;Samples;Min_cycle;Max_cycle;Signal;HPM_P1;HPM_P2
2021/10/01 00:01:05;;;;;;;7.68;1.60;;;;;;;15.28;58.11;101785.47;4997668;28;20580;-54
2021/10/01 00:03:30;;;;;;;4.55;1.77;;;;;;;15.46;56.62;101789.13;5000125;28;20069;-49
2021/10/01 00:05:56;;;;;;;6.85;1.90;;;;;;;15.48;56.88;101793.53;5002845;28;20067;-49
2021/10/01 00:08:21;;;;;;;10.95;2.08;;;;;;;15.58;56.52;101791.88;5000318;28;20121;-51
2021/10/01 00:10:46;;;;;;;5.00;1.88;;;;;;;15.50;56.77;101794.41;5000550;28;20038;-49
2021/10/01 00:13:12;;;;;;;9.32;1.83;;;;;;;15.40;57.40;101784.69;4995349;28;20080;-48
2021/10/01 00:15:37;;;;;;;9.20;1.80;;;;;;;15.54;57.01;101782.22;5001518;28;20045;-48
2021/10/01 00:18:05;;;;;;;6.50;1.77;;;;;;;15.50;56.84;101777.75;5000845;28;20258;-53
2021/10/01 00:20:31;;;;;;;4.03;1.60;;;;;;;15.52;57.56;101776.03;5003086;28;20584;-50
2021/10/01 00:22:56;;;;;;;7.45;2.00;;;;;;;15.52;57.17;101770.78;4994779;28;20113;-50
2021/10/01 00:25:22;;;;;;;5.35;1.80;;;;;;;15.43;57.64;101771.56;5002101;28;20128;-48
2021/10/01 00:27:47;;;;;;;6.45;1.88;;;;;;;15.35;57.67;101765.38;4998657;28;20080;-53
2021/10/01 00:30:12;;;;;;;8.35;1.95;;;;;;;15.35;58.15;101771.53;4997791;28;20076;-51
2021/10/01 00:32:38;;;;;;;6.82;1.75;;;;;;;15.40;58.07;101767.19;5008529;28;20069;-49
2021/10/01 00:35:04;;;;;;;8.85;1.92;;;;;;;15.38;57.89;101776.78;5000992;28;20041;-51
2021/10/01 00:37:30;;;;;;;5.65;2.00;;;;;;;15.27;58.88;101754.81;5006812;28;20470;-49
2021/10/01 00:39:55;;;;;;;5.50;1.88;;;;;;;15.19;59.14;101764.38;4998277;28;20034;-49
2021/10/01 00:42:20;;;;;;;7.03;1.95;;;;;;;15.31;58.85;101763.59;5007189;28;20176;-49
2021/10/01 00:44:46;;;;;;;5.57;1.98;;;;;;;15.35;58.94;101760.13;5002550;28;20413;-48
2021/10/01 00:47:12;;;;;;;10.20;2.15;;;;;;;15.31;59.23;101756.59;4999158;28;20475;-47
2021/10/01 00:49:37;;;;;;;6.75;2.13;;;;;;;15.26;59.55;101750.41;5004289;28;20045;-48
2021/10/01 00:52:03;;;;;;;7.10;1.77;;;;;;;15.25;60.08;101756.53;5004175;28;20046;-48
2021/10/01 00:54:29;;;;;;;4.43;1.80;;;;;;;15.15;60.77;101749.47;5003151;28;20068;-50
2021/10/01 00:56:56;;;;;;;8.77;1.90;;;;;;;15.33;59.95;101757.50;4994271;28;20145;-47
2021/10/01 00:59:22;;;;;;;6.55;1.92;;;;;;;15.30;60.39;101741.72;5004756;28;20502;-48
2021/10/01 01:01:47;;;;;;;9.82;2.05;;;;;;;15.44;59.87;101747.94;5006784;28;20091;-51
2021/10/01 01:04:13;;;;;;;7.40;1.90;;;;;;;15.21;61.59;101735.50;5004460;28;20117;-48
2021/10/01 01:07:09;;;;;;;5.80;2.00;;;;;;;15.23;60.92;101741.66;5006099;28;20114;-50
2021/10/01 01:09:46;;;;;;;6.47;1.92;;;;;;;15.20;60.11;101729.34;5004700;28;20506;-49
2021/10/01 01:12:36;;;;;;;5.63;1.80;;;;;;;15.34;60.29;101740.88;5022376;28;20040;-54
2021/10/01 01:15:12;;;;;;;8.10;2.10;;;;;;;15.28;60.39;101735.56;4994142;28;20417;-49
2021/10/01 01:18:08;;;;;;;7.88;1.98;;;;;;;15.24;60.71;101735.53;5024015;28;20592;-51
2021/10/01 01:20:33;;;;;;;8.98;1.80;;;;;;;15.31;59.92;101730.31;5002769;28;20068;-49
2021/10/01 01:23:11;;;;;;;6.93;1.73;;;;;;;15.28;60.26;101725.06;5009849;28;20788;-49
2021/10/01 01:25:43;;;;;;;7.47;1.80;;;;;;;15.25;60.74;101729.38;4998902;28;20552;-51
2021/10/01 01:28:20;;;;;;;7.50;1.90;;;;;;;15.18;59.70;101722.34;5017949;28;20072;-51
2021/10/01 01:30:51;;;;;;;7.10;1.98;;;;;;;15.28;59.26;101717.16;5000689;28;20045;-50
2021/10/01 01:33:21;;;;;;;5.97;1.90;;;;;;;15.28;59.18;101711.03;4999710;28;20087;-51
2021/10/01 01:35:50;;;;;;;8.07;1.80;;;;;;;15.28;58.97;101709.28;5002835;28;20293;-51
2021/10/01 01:38:26;;;;;;;8.82;1.85;;;;;;;15.36;59.83;101704.97;5004177;28;20587;-52
2021/10/01 01:40:54;;;;;;;6.80;2.00;;;;;;;15.25;59.55;101690.88;5000896;28;20048;-51
2021/10/01 01:43:20;;;;;;;9.77;1.90;;;;;;;15.36;59.34;101697.09;5002501;28;20049;-52
2021/10/01 01:45:46;;;;;;;7.30;1.60;;;;;;;15.41;58.35;101686.63;5019852;28;20056;-50
2021/10/01 01:48:12;;;;;;;7.50;1.95;;;;;;;15.36;59.56;101694.47;5003623;28;20046;-54
2021/10/01 01:50:38;;;;;;;7.38;1.92;;;;;;;15.34;58.65;101698.81;5002581;28;20037;-51
2021/10/01 01:53:05;;;;;;;6.47;1.90;;;;;;;15.33;58.75;101691.81;4999646;28;20110;-51
2021/10/01 01:55:31;;;;;;;9.15;1.90;;;;;;;15.32;58.97;101686.53;5003586;28;20033;-48
2021/10/01 01:57:57;;;;;;;6.57;1.90;;;;;;;15.42;58.64;101681.38;5003579;28;20149;-53
2021/10/01 02:00:23;;;;;;;9.40;1.90;;;;;;;15.32;58.97;101676.91;4998749;28;20440;-50
2021/10/01 02:02:50;;;;;;;7.20;1.73;;;;;;;15.36;59.04;101673.44;5004806;28;20053;-51
2021/10/01 02:05:17;;;;;;;10.15;1.85;;;;;;;15.35;58.55;101671.69;5000171;28;20049;-51
2021/10/01 02:07:43;;;;;;;7.05;1.85;;;;;;;15.33;59.39;101662.03;5002333;28;20362;-50
2021/10/01 02:10:09;;;;;;;6.72;2.00;;;;;;;15.28;58.49;101662.00;5002927;28;20056;-50
2021/10/01 02:12:35;;;;;;;5.80;1.98;;;;;;;15.20;59.86;101666.31;5014840;28;20076;-51
2021/10/01 02:15:00;;;;;;;6.50;1.77;;;;;;;15.24;59.60;101670.75;4998223;28;20394;-51
2021/10/01 02:17:27;;;;;;;9.20;1.77;;;;;;;15.25;59.28;101661.97;4996089;28;20072;-51
2021/10/01 02:19:55;;;;;;;4.43;1.70;;;;;;;15.05;60.55;101653.09;4999315;28;20478;-51
2021/10/01 02:22:21;;;;;;;6.13;2.00;;;;;;;15.12;60.50;101641.75;5002681;28;20486;-52
2021/10/01 02:24:47;;;;;;;6.70;1.90;;;;;;;15.09;60.82;101639.09;4998269;28;20056;-53
2021/10/01 02:27:31;;;;;;;5.45;1.90;;;;;;;15.07;60.21;101634.69;4998926;28;20182;-53
2021/10/01 02:30:00;;;;;;;6.95;1.70;;;;;;;15.12;60.01;101638.25;5014194;28;20459;-51
2021/10/01 02:32:29;;;;;;;6.65;2.10;;;;;;;15.10;61.10;101630.34;5005304;28;20098;-47
2021/10/01 02:34:54;;;;;;;6.88;1.92;;;;;;;15.13;59.88;101622.47;4997676;28;20041;-51
2021/10/01 02:37:20;;;;;;;4.35;1.65;;;;;;;15.04;60.50;101617.19;4999536;28;20731;-49
2021/10/01 02:39:47;;;;;;;7.57;1.98;;;;;;;15.17;59.18;101607.66;4997457;28;20456;-48
2021/10/01 02:42:15;;;;;;;6.28;1.73;;;;;;;15.05;60.25;101608.44;5003492;28;20079;-49
2021/10/01 02:44:41;;;;;;;7.97;2.08;;;;;;;15.14;60.48;101600.59;5006116;28;20486;-53
2021/10/01 02:47:07;;;;;;;5.57;2.00;;;;;;;14.96;61.45;101603.13;4993086;28;20128;-50
2021/10/01 02:49:33;;;;;;;6.05;1.95;;;;;;;15.06;59.75;101586.56;5019224;28;20512;-52
2021/10/01 02:52:04;;;;;;;9.63;2.13;;;;;;;15.00;60.29;101591.78;4999701;28;20407;-50
2021/10/01 02:54:43;;;;;;;5.57;1.85;;;;;;;14.97;60.86;101583.88;5015000;28;20033;-48
2021/10/01 02:57:12;;;;;;;6.07;1.63;;;;;;;15.05;60.18;101571.69;4996113;28;20727;-49
2021/10/01 02:59:39;;;;;;;12.00;2.00;;;;;;;14.93;61.29;101574.22;5016681;28;20152;-52
2021/10/01 03:02:05;;;;;;;9.82;1.90;;;;;;;14.82;60.96;101575.91;5002510;28;20309;-50
2021/10/01 03:04:31;;;;;;;6.22;1.83;;;;;;;14.78;61.13;101574.09;4997583;28;20124;-54
2021/10/01 03:06:59;;;;;;;8.38;1.98;;;;;;;14.74;61.34;101573.22;5015496;28;20119;-48
2021/10/01 03:09:27;;;;;;;6.88;1.90;;;;;;;14.73;61.50;101573.19;4997300;28;20120;-49
2021/10/01 03:11:55;;;;;;;6.10;1.92;;;;;;;14.73;61.99;101565.31;5000278;28;20128;-50
2021/10/01 03:14:21;;;;;;;5.00;1.85;;;;;;;14.75;61.03;101571.47;5003982;28;20516;-50
2021/10/01 03:16:48;;;;;;;6.80;1.90;;;;;;;14.63;61.83;101569.63;4998188;28;21342;-50
2021/10/01 03:19:14;;;;;;;6.45;1.90;;;;;;;14.45;63.45;101569.50;4993231;28;20455;-51
2021/10/01 03:21:41;;;;;;;9.02;2.20;;;;;;;14.45;62.76;101565.13;4996904;28;20500;-51
2021/10/01 03:24:06;;;;;;;6.82;1.92;;;;;;;14.45;62.50;101559.88;5004290;28;20045;-50
2021/10/01 03:26:32;;;;;;;6.70;1.85;;;;;;;14.36;63.26;101546.63;4997902;28;20046;-51
2021/10/01 03:28:58;;;;;;;7.72;2.33;;;;;;;14.34;62.87;101545.72;5009334;28;20508;-51
2021/10/01 03:31:25;;;;;;;7.30;2.00;;;;;;;14.30;63.60;101533.47;4985389;28;20056;-49
2021/10/01 03:33:50;;;;;;;5.97;1.98;;;;;;;14.26;63.49;101531.69;5000903;28;20045;-51
2021/10/01 03:36:16;;;;;;;3.83;1.88;;;;;;;14.27;63.44;101536.06;4999609;28;20448;-51
2021/10/01 03:38:45;;;;;;;7.05;2.10;;;;;;;14.28;63.38;101537.81;4999653;28;20075;-49
2021/10/01 03:41:11;;;;;;;7.70;2.00;;;;;;;14.28;63.81;101534.31;5009486;28;20122;-49
2021/10/01 03:43:36;;;;;;;6.78;2.10;;;;;;;14.30;64.03;101535.22;5002175;28;20038;-48
2021/10/01 03:46:01;;;;;;;7.70;2.05;;;;;;;14.39;62.77;101530.97;5000159;28;20528;-51
2021/10/01 03:48:27;;;;;;;7.35;1.85;;;;;;;14.52;61.95;101524.03;5004783;28;20398;-49
2021/10/01 03:50:52;;;;;;;4.03;2.05;;;;;;;14.45;61.79;101517.03;4997125;28;20087;-53
2021/10/01 03:53:18;;;;;;;7.03;2.17;;;;;;;14.40;62.66;101523.94;4996338;28;20045;-51
2021/10/01 03:55:43;;;;;;;4.68;1.92;;;;;;;14.43;62.33;101522.25;5000749;28;20519;-50
2021/10/01 03:58:09;;;;;;;6.78;2.08;;;;;;;14.33;62.30;101522.13;4999898;28;20079;-48
2021/10/01 04:00:34;;;;;;;6.10;1.80;;;;;;;14.30;61.86;101524.72;5004559;28;20044;-47
2021/10/01 04:03:01;;;;;;;5.45;1.83;;;;;;;14.19;63.66;101519.38;4995613;28;20387;-51
2021/10/01 04:05:26;;;;;;;6.75;1.88;;;;;;;14.19;63.12;101515.03;5004623;28;20111;-50
2021/10/01 04:07:52;;;;;;;8.00;1.83;;;;;;;14.06;63.49;101509.63;5017552;28;20118;-50
2021/10/01 04:10:17;;;;;;;7.50;2.00;;;;;;;14.13;62.64;101514.09;5004449;28;20208;-50
2021/10/01 04:12:44;;;;;;;6.43;2.00;;;;;;;14.05;63.41;101521.00;5007287;28;20045;-50
2021/10/01 04:15:10;;;;;;;7.50;2.00;;;;;;;14.06;63.06;101509.63;4998948;28;20377;-49
2021/10/01 04:17:35;;;;;;;7.60;1.90;;;;;;;14.02;63.25;101515.72;5000954;28;20045;-49
2021/10/01 04:20:01;;;;;;;6.47;2.15;;;;;;;14.08;63.09;101515.78;5020565;28;20508;-48
2021/10/01 04:22:26;;;;;;;6.47;1.90;;;;;;;14.05;63.40;101513.13;5008874;28;20553;-47
2021/10/01 04:24:52;;;;;;;7.03;1.70;;;;;;;14.19;62.66;101512.41;4998403;28;20060;-51
2021/10/01 04:27:17;;;;;;;4.78;1.85;;;;;;;14.15;62.59;101521.06;5004382;28;20042;-48
2021/10/01 04:29:43;;;;;;;8.80;1.88;;;;;;;14.29;61.91;101505.47;4998050;28;20046;-50
2021/10/01 04:32:10;;;;;;;7.82;2.00;;;;;;;14.21;62.92;101504.53;5005749;28;20053;-49
2021/10/01 04:34:57;;;;;;;5.57;1.90;;;;;;;14.23;62.46;101508.94;5008448;28;20072;-49
2021/10/01 04:37:23;;;;;;;5.85;1.75;;;;;;;14.18;62.42;101512.38;5004113;28;20106;-52
2021/10/01 04:39:48;;;;;;;8.73;1.92;;;;;;;14.19;62.36;101509.78;5003868;28;20037;-49
2021/10/01 04:42:14;;;;;;;5.97;1.70;;;;;;;14.03;64.03;101509.59;5005808;28;20029;-47
2021/10/01 04:44:39;;;;;;;5.53;2.00;;;;;;;14.03;63.43;101509.59;5006069;28;20044;-51
2021/10/01 04:47:04;;;;;;;6.05;2.08;;;;;;;14.05;62.96;101500.00;4995775;28;20042;-50
2021/10/01 04:49:30;;;;;;;7.25;1.70;;;;;;;14.06;63.00;101504.41;5005538;28;20048;-48
2021/10/01 04:51:56;;;;;;;7.18;2.00;;;;;;;13.98;63.01;101500.81;5007876;28;20500;-50
2021/10/01 04:54:21;;;;;;;7.38;1.92;;;;;;;14.05;62.83;101507.88;5002375;28;20083;-50
2021/10/01 04:56:47;;;;;;;6.72;1.85;;;;;;;14.09;63.27;101499.16;5001077;28;20037;-49
2021/10/01 04:59:13;;;;;;;4.47;1.95;;;;;;;14.11;63.03;101502.69;4996201;28;20077;-47
2021/10/01 05:01:38;;;;;;;4.55;1.75;;;;;;;14.14;62.83;101485.25;5005654;28;20579;-50
2021/10/01 05:04:04;;;;;;;6.50;1.95;;;;;;;14.13;62.49;101500.97;4999084;28;20163;-48
2021/10/01 05:06:29;;;;;;;8.13;2.08;;;;;;;14.11;62.89;101500.94;5001825;28;20141;-54
2021/10/01 05:08:54;;;;;;;7.03;2.03;;;;;;;14.09;63.12;101491.31;4996694;28;20091;-52
2021/10/01 05:11:20;;;;;;;7.07;2.30;;;;;;;14.07;63.36;101491.31;5003245;28;20057;-51
2021/10/01 05:13:45;;;;;;;6.63;1.95;;;;;;;14.21;62.91;101486.16;5003466;28;20041;-50
2021/10/01 05:16:11;;;;;;;7.13;2.20;;;;;;;14.30;61.77;101493.25;5003360;28;20474;-48
2021/10/01 05:18:36;;;;;;;7.47;2.10;;;;;;;14.26;62.46;101494.97;5001420;28;20136;-51
2021/10/01 05:21:04;;;;;;;7.75;2.17;;;;;;;14.27;61.75;101486.25;4996883;28;20076;-52
2021/10/01 05:23:30;;;;;;;6.63;1.90;;;;;;;14.23;61.92;101490.56;5007154;28;20053;-51
2021/10/01 05:25:56;;;;;;;6.18;2.05;;;;;;;14.33;61.58;101490.66;5004991;28;20111;-53
2021/10/01 05:28:22;;;;;;;5.45;2.05;;;;;;;14.36;61.59;101485.41;5003408;28;20121;-50
2021/10/01 05:30:47;;;;;;;7.65;1.98;;;;;;;14.37;61.60;101490.72;4999403;28;20042;-54
2021/10/01 05:33:14;;;;;;;6.63;1.88;;;;;;;14.41;61.51;101481.09;4995930;28;20041;-52
2021/10/01 05:35:41;;;;;;;6.70;2.30;;;;;;;14.37;62.51;101476.69;4984804;28;20295;-51
2021/10/01 05:38:06;;;;;;;6.68;1.98;;;;;;;14.44;61.56;101475.91;5004454;28;20038;-48
2021/10/01 05:40:32;;;;;;;6.57;2.13;;;;;;;14.58;61.34;101477.75;5005332;28;20052;-52
2021/10/01 05:42:57;;;;;;;7.15;1.98;;;;;;;14.41;61.41;101478.50;4994590;28;20061;-51
2021/10/01 05:45:23;;;;;;;4.82;2.10;;;;;;;14.47;61.61;101460.16;5000938;28;20056;-53
2021/10/01 05:47:48;;;;;;;7.50;2.08;;;;;;;14.46;61.35;101461.91;5000870;28;20313;-51
2021/10/01 05:50:15;;;;;;;8.63;2.30;;;;;;;14.50;61.46;101465.44;5000813;28;20144;-53
2021/10/01 05:55:09;;;;;;;4.97;1.90;;;;;;;14.59;61.21;101462.88;5001228;28;20048;-49
2021/10/01 05:57:36;;;;;;;6.00;1.90;;;;;;;14.63;61.18;101469.03;4999841;28;20524;-49
2021/10/01 06:00:04;;;;;;;6.13;1.75;;;;;;;14.59;62.24;101468.13;5003527;28;20048;-49
2021/10/01 06:02:29;;;;;;;7.03;2.20;;;;;;;14.46;62.85;101464.53;5002932;28;21128;-51
2021/10/01 06:04:55;;;;;;;4.03;1.83;;;;;;;14.52;61.70;101461.06;4997258;28;20924;-52
2021/10/01 06:07:23;;;;;;;7.38;2.05;;;;;;;14.57;61.89;101464.63;5001312;28;20061;-52
2021/10/01 06:09:49;;;;;;;6.65;1.88;;;;;;;14.52;62.17;101463.69;4999416;28;20333;-52
2021/10/01 06:12:15;;;;;;;5.95;2.00;;;;;;;14.55;61.98;101469.84;5006180;28;20120;-49
2021/10/01 06:14:41;;;;;;;7.55;2.00;;;;;;;14.66;61.58;101461.16;5001237;28;20049;-49
2021/10/01 06:17:07;;;;;;;8.32;2.00;;;;;;;14.73;60.90;101462.97;4996596;28;20535;-49
2021/10/01 06:19:34;;;;;;;7.70;1.98;;;;;;;14.70;61.11;101465.59;5000874;28;20058;-49
2021/10/01 06:22:00;;;;;;;8.98;2.10;;;;;;;14.63;62.22;101466.41;5005008;28;20041;-51
2021/10/01 06:24:26;;;;;;;5.28;1.60;;;;;;;14.79;61.96;101460.38;5003826;28;20050;-53
2021/10/01 06:26:51;;;;;;;7.63;1.73;;;;;;;14.81;60.71;101456.03;4997613;28;20048;-47
2021/10/01 06:29:17;;;;;;;6.03;1.92;;;;;;;14.80;61.81;101460.38;4998721;28;20083;-50
2021/10/01 06:31:43;;;;;;;10.55;1.70;;;;;;;14.86;61.50;101449.03;5002472;28;20050;-51
2021/10/01 06:34:09;;;;;;;7.63;1.95;;;;;;;14.98;61.32;101449.09;5002240;28;20132;-50
2021/10/01 06:36:35;;;;;;;8.18;1.90;;;;;;;14.96;60.83;101446.47;4999662;28;20658;-48
2021/10/01 06:39:01;;;;;;;8.85;2.10;;;;;;;15.03;60.46;101448.25;4995914;28;20045;-50
2021/10/01 06:41:26;;;;;;;6.07;2.10;;;;;;;15.15;61.06;101442.16;5005848;28;20053;-52
2021/10/01 06:43:58;;;;;;;6.28;2.15;;;;;;;15.22;60.63;101456.19;5001272;28;20038;-49
2021/10/01 06:46:33;;;;;;;4.40;1.73;;;;;;;15.28;60.49;101453.59;5003957;28;20485;-49
2021/10/01 06:49:21;;;;;;;7.72;1.90;;;;;;;15.32;60.06;101455.34;4992382;28;20045;-50
2021/10/01 08:19:28;;;;;;;11.85;1.75;;;;;;;16.64;58.94;101437.06;5003718;28;20098;-53
2021/10/01 08:21:57;;;;;;;6.80;1.65;;;;;;;16.79;57.88;101436.13;4996654;28;20139;-53
2021/10/01 08:24:23;;;;;;;5.68;1.77;;;;;;;16.74;57.93;101437.91;4996829;28;20139;-52
2021/10/01 08:26:50;;;;;;;5.75;1.67;;;;;;;16.43;59.57;101431.81;4996319;28;20809;-50
2021/10/01 08:29:16;;;;;;;6.57;1.77;;;;;;;16.63;57.80;101441.47;4995216;28;20139;-53
2021/10/01 08:31:42;;;;;;;6.47;1.88;;;;;;;16.70;58.12;101431.78;4997567;28;20041;-51
2021/10/01 08:34:07;;;;;;;6.00;1.73;;;;;;;16.63;58.56;101425.66;4997646;28;20404;-51
2021/10/01 08:36:33;;;;;;;4.90;1.67;;;;;;;16.79;57.99;101421.22;5009015;28;20125;-50
2021/10/01 08:38:58;;;;;;;4.88;1.60;;;;;;;16.69;59.27;101421.25;4995488;28;20076;-51
2021/10/01 08:41:24;;;;;;;5.72;1.92;;;;;;;17.06;57.60;101427.25;4996875;28;20046;-50
2021/10/01 08:43:50;;;;;;;7.88;1.80;;;;;;;16.88;58.36;101423.81;4997871;28;20261;-54
2021/10/01 08:46:16;;;;;;;7.20;1.75;;;;;;;16.97;58.93;101423.78;4998937;28;20827;-50
2021/10/01 08:48:42;;;;;;;7.70;1.60;;;;;;;17.25;58.64;101423.66;4999339;28;20068;-48
2021/10/01 08:51:09;;;;;;;8.13;1.90;;;;;;;17.38;58.38;101420.94;4995184;28;20125;-54
2021/10/01 08:53:34;;;;;;;4.95;1.80;;;;;;;17.47;57.65;101416.50;5003903;28;20033;-51
2021/10/01 08:56:01;;;;;;;6.00;1.83;;;;;;;17.57;57.14;101411.16;5003635;28;20412;-50
2021/10/01 08:58:27;;;;;;;5.03;1.70;;;;;;;17.72;56.67;101410.22;5006573;28;20476;-49
2021/10/01 09:00:54;;;;;;;10.30;1.80;;;;;;;17.47;56.73;101411.22;4999534;28;20048;-51
2021/10/01 09:03:19;;;;;;;4.55;1.80;;;;;;;17.75;55.85;101404.88;5000616;28;20084;-54
2021/10/01 09:05:45;;;;;;;5.05;1.77;;;;;;;17.67;56.46;101420.78;5005446;28;20513;-49
2021/10/01 09:08:18;;;;;;;5.22;1.85;;;;;;;17.94;54.76;101418.81;5000999;28;20367;-50
2021/10/01 09:11:06;;;;;;;4.90;1.77;;;;;;;18.02;55.67;101415.22;5005786;28;20045;-53
2021/10/01 09:13:34;;;;;;;7.72;1.75;;;;;;;18.32;54.82;101415.84;5002725;28;20065;-50
2021/10/01 09:16:05;;;;;;;6.65;1.77;;;;;;;18.18;55.83;101402.75;5004526;28;20319;-51
2021/10/01 09:18:33;;;;;;;9.07;1.98;;;;;;;18.26;54.14;101400.94;4999838;28;20494;-51
2021/10/01 09:21:16;;;;;;;7.60;2.05;;;;;;;18.23;55.01;101390.44;4999594;28;20034;-51
2021/10/01 09:23:51;;;;;;;4.60;1.70;;;;;;;18.45;54.23;101402.50;5003995;28;20045;-52
2021/10/01 09:26:19;;;;;;;7.72;1.92;;;;;;;18.41;56.00;101400.81;5004899;28;20152;-53
2021/10/01 09:29:01;;;;;;;8.10;2.00;;;;;;;18.45;54.65;101401.63;5002972;28;20134;-51
2021/10/01 09:31:30;;;;;;;6.25;1.65;;;;;;;18.21;55.11;101400.13;5001638;28;20270;-53
2021/10/01 09:33:57;;;;;;;6.13;1.85;;;;;;;18.27;54.83;101396.53;5005134;28;20677;-52
2021/10/01 09:36:25;;;;;;;7.70;2.00;;;;;;;18.07;55.29;101389.69;5005161;28;20045;-51
2021/10/01 09:38:51;;;;;;;7.07;1.90;;;;;;;17.96;55.83;101393.31;5003885;28;20053;-47
2021/10/01 09:41:25;;;;;;;7.82;2.20;;;;;;;17.83;56.63;101390.78;4999779;28;20049;-49
2021/10/01 09:44:18;;;;;;;6.33;2.10;;;;;;;17.50;57.66;101391.00;5005584;28;20171;-52
2021/10/01 09:46:50;;;;;;;6.07;1.70;;;;;;;17.45;58.41;101388.38;5001682;28;20057;-49
2021/10/01 09:49:18;;;;;;;4.97;1.90;;;;;;;17.64;56.98;101394.44;4996599;28;20045;-50
2021/10/01 09:51:55;;;;;;;5.15;1.75;;;;;;;17.44;58.47;101389.25;5008576;28;20053;-50
2021/10/01 09:54:22;;;;;;;8.85;1.92;;;;;;;17.64;57.56;101381.25;4985796;28;20449;-52
2021/10/01 09:56:48;;;;;;;6.07;1.77;;;;;;;17.75;59.39;101384.66;5003263;28;20122;-53
2021/10/01 09:59:21;;;;;;;7.68;2.05;;;;;;;17.54;58.73;101374.28;4993861;28;20486;-50
2021/10/01 10:02:05;;;;;;;11.23;1.80;;;;;;;17.57;59.03;101387.41;4999722;28;20456;-52
2021/10/01 10:04:37;;;;;;;7.88;1.88;;;;;;;17.61;58.65;101383.94;4995811;28;20038;-49
2021/10/01 10:07:10;;;;;;;8.55;1.90;;;;;;;17.52;59.02;101380.44;4996190;28;20042;-48
2021/10/01 10:09:41;;;;;;;5.78;1.90;;;;;;;17.40;60.43;101386.66;5000182;28;20045;-53
2021/10/01 10:12:09;;;;;;;6.45;1.88;;;;;;;17.48;59.59;101382.22;5000728;28;20130;-54
2021/10/01 10:14:36;;;;;;;5.85;1.85;;;;;;;17.36;60.05;101380.56;5003030;28;20041;-51
2021/10/01 10:17:10;;;;;;;7.40;1.92;;;;;;;17.45;61.07;101401.56;4991580;28;20369;-48
2021/10/01 10:19:35;;;;;;;6.75;1.88;;;;;;;17.57;59.52;101391.81;5001175;28;20037;-52
2021/10/01 10:22:02;;;;;;;5.65;1.80;;;;;;;17.58;59.66;101394.44;4993334;28;20146;-51
2021/10/01 10:24:27;;;;;;;11.40;2.30;;;;;;;17.42;61.61;101398.09;5002425;28;20048;-53
2021/10/01 10:26:56;;;;;;;4.90;1.77;;;;;;;17.44;60.60;101383.97;4999597;28;20045;-48
2021/10/01 10:29:22;;;;;;;5.38;1.92;;;;;;;17.46;60.95;101391.91;4999662;28;20590;-53
2021/10/01 10:31:47;;;;;;;6.80;2.10;;;;;;;17.39;60.06;101383.16;5002346;28;20059;-52
2021/10/01 10:34:28;;;;;;;5.80;1.90;;;;;;;17.27;60.92;101385.84;4999986;28;20041;-51
2021/10/01 10:37:06;;;;;;;6.75;2.05;;;;;;;16.96;60.96;101385.16;4997089;28;20181;-56
2021/10/01 10:39:37;;;;;;;6.10;2.17;;;;;;;17.18;61.75;101387.69;5016334;28;20226;-48
2021/10/01 10:42:03;;;;;;;7.63;2.10;;;;;;;17.10;63.08;101390.34;5002748;28;20076;-50
2021/10/01 10:44:48;;;;;;;7.60;2.28;;;;;;;16.88;65.79;101383.44;5004826;28;20568;-52
2021/10/01 10:47:44;;;;;;;4.88;2.17;;;;;;;16.83;65.41;101375.53;4994885;28;20153;-49
2021/10/01 10:50:25;;;;;;;6.55;2.20;;;;;;;16.81;66.02;101377.31;4993103;28;20077;-47
2021/10/01 10:53:12;;;;;;;6.15;2.33;;;;;;;17.04;64.68;101374.56;4997491;28;20042;-49
2021/10/01 10:55:53;;;;;;;8.23;2.40;;;;;;;16.98;64.88;101367.59;4998161;28;20049;-48
2021/10/01 10:58:22;;;;;;;7.63;2.38;;;;;;;17.05;64.55;101378.97;4998769;28;20563;-48
2021/10/01 11:00:49;;;;;;;6.95;2.42;;;;;;;16.81;66.27;101373.81;5002328;28;20587;-48
2021/10/01 11:03:23;;;;;;;6.72;2.13;;;;;;;16.78;66.40;101361.53;5008062;28;20087;-50
2021/10/01 11:06:10;;;;;;;6.15;2.28;;;;;;;16.71;67.94;101361.59;4996884;28;20045;-48
2021/10/01 11:08:57;;;;;;;6.85;2.50;;;;;;;16.60;67.60;101356.34;5001685;28;20042;-51
2021/10/01 11:11:34;;;;;;;6.28;2.30;;;;;;;16.51;69.77;101356.34;4964344;28;20116;-50
2021/10/01 11:14:15;;;;;;;9.27;2.40;;;;;;;16.50;70.00;101367.75;4996736;28;20771;-49
2021/10/01 11:16:41;;;;;;;9.02;2.40;;;;;;;16.49;68.53;101366.88;5002616;28;20056;-51
2021/10/01 11:19:09;;;;;;;8.40;2.38;;;;;;;16.42;69.00;101353.72;4987910;28;20172;-52
2021/10/01 11:21:43;;;;;;;5.40;2.42;;;;;;;16.38;69.52;101354.63;4998638;28;20380;-51
2021/10/01 11:24:21;;;;;;;7.50;2.50;;;;;;;16.50;69.43;101357.22;5003252;28;20060;-52
2021/10/01 11:26:55;;;;;;;6.38;2.38;;;;;;;16.51;69.69;101344.06;4997559;28;20493;-52
2021/10/01 11:29:31;;;;;;;7.53;2.80;;;;;;;16.65;69.58;101351.06;4981116;28;20172;-50
2021/10/01 11:32:04;;;;;;;10.45;3.17;;;;;;;16.85;69.17;101349.22;4996338;28;20041;-50
2021/10/01 11:34:50;;;;;;;8.30;2.92;;;;;;;16.91;68.72;101347.41;4998147;28;20509;-52
2021/10/01 11:37:36;;;;;;;10.02;2.80;;;;;;;16.91;68.58;101341.28;4988620;28;20053;-51
2021/10/01 11:40:28;;;;;;;7.00;2.45;;;;;;;16.90;68.29;101339.53;4993535;28;20474;-53
2021/10/01 11:42:55;;;;;;;9.27;2.67;;;;;;;16.92;68.83;101345.66;4998645;28;20041;-51
2021/10/01 11:45:23;;;;;;;8.68;2.58;;;;;;;17.09;68.77;101345.56;4997903;28;20490;-50
2021/10/01 11:47:54;;;;;;;7.50;2.50;;;;;;;17.23;68.03;101343.72;4997733;28;20144;-51
2021/10/01 11:50:39;;;;;;;6.85;2.58;;;;;;;17.31;68.69;101342.81;4997301;28;20068;-51
2021/10/01 11:53:08;;;;;;;7.13;2.65;;;;;;;17.63;67.07;101336.44;4993308;28;20103;-50
2021/10/01 11:55:35;;;;;;;9.00;2.53;;;;;;;17.72;66.56;101328.47;4999051;28;20034;-48
2021/10/01 11:58:01;;;;;;;7.25;2.40;;;;;;;17.90;67.90;101327.41;4998359;28;20096;-51
2021/10/01 12:00:26;;;;;;;4.78;2.40;;;;;;;17.98;67.73;101326.47;5000945;28;20052;-50
2021/10/01 12:02:53;;;;;;;5.88;2.40;;;;;;;18.12;66.15;101324.53;4999127;28;20042;-51
2021/10/01 12:05:27;;;;;;;9.23;2.30;;;;;;;18.30;65.18;101322.63;4998958;28;20110;-51
2021/10/01 12:08:04;;;;;;;7.72;2.35;;;;;;;18.35;64.03;101320.78;4995700;28;20069;-50
2021/10/01 12:10:32;;;;;;;6.97;2.33;;;;;;;18.22;63.86;101320.06;5003289;28;20563;-48
2021/10/01 12:13:07;;;;;;;5.90;2.47;;;;;;;18.17;65.36;101325.41;4992347;28;20139;-49
2021/10/01 12:15:48;;;;;;;8.38;2.40;;;;;;;18.05;65.02;101312.28;4995517;28;20055;-50
2021/10/01 12:18:37;;;;;;;6.78;2.33;;;;;;;18.40;63.39;101311.06;4997025;28;20060;-54
2021/10/01 12:21:22;;;;;;;5.28;1.90;;;;;;;18.58;62.76;101314.38;4996844;28;20835;-51
2021/10/01 12:23:50;;;;;;;9.13;2.10;;;;;;;18.67;62.09;101309.84;4995299;28;20708;-52
2021/10/01 12:26:34;;;;;;;9.70;2.40;;;;;;;18.74;62.32;101316.81;5001814;28;20037;-50
2021/10/01 12:29:17;;;;;;;6.45;1.98;;;;;;;18.85;61.08;101307.84;4998404;28;20056;-48
2021/10/01 12:31:52;;;;;;;6.97;2.10;;;;;;;18.50;61.51;101312.69;5004715;28;20049;-49
2021/10/01 12:34:20;;;;;;;5.00;2.00;;;;;;;18.15;62.91;101313.09;5000653;28;20132;-51
2021/10/01 12:36:48;;;;;;;6.88;2.10;;;;;;;18.45;61.06;101312.75;5002819;28;20405;-52
2021/10/01 12:39:14;;;;;;;6.15;2.00;;;;;;;18.55;61.10;101308.25;4995585;28;20308;-52
2021/10/01 12:41:40;;;;;;;6.13;1.90;;;;;;;18.48;63.30;101315.31;5004918;28;20049;-48
2021/10/01 12:44:10;;;;;;;7.05;2.00;;;;;;;18.39;63.63;101310.19;5000277;28;20052;-53
2021/10/01 12:46:42;;;;;;;4.50;2.05;;;;;;;18.26;63.03;101308.56;5016289;28;20164;-50
2021/10/01 12:49:11;;;;;;;5.78;2.25;;;;;;;18.02;63.32;101312.34;4995966;28;20509;-53
2021/10/01 12:51:36;;;;;;;7.47;2.25;;;;;;;17.92;65.89;101302.78;5004733;28;20055;-52
2021/10/01 12:54:20;;;;;;;8.05;2.25;;;;;;;17.98;64.69;101318.53;5000206;28;20056;-48
2021/10/01 12:56:45;;;;;;;5.88;2.20;;;;;;;18.05;63.03;101316.72;5001434;28;20576;-50
2021/10/01 12:59:11;;;;;;;7.28;2.20;;;;;;;17.90;63.86;101319.50;4990594;28;20135;-50
2021/10/01 13:01:36;;;;;;;6.45;2.25;;;;;;;17.65;65.84;101314.44;5005242;28;20648;-52
2021/10/01 13:04:02;;;;;;;4.13;2.20;;;;;;;17.63;65.42;101326.75;5001597;28;20041;-48